Time;durP1;ratioP1;P1;durP2;ratioP2;P2;SDS_P1;SDS_P2;PMS_P1;PMS_P2;Temp;Humidity;BMP_temperature;BMP_pressure;BME280_temperature;BME280_humidity;BME280_pressure;Samples;Min_cycle;Max_cycle;Signal;HPM_P1;HPM_P2
2023/07/01 00:01:27;;;;;;;9.40;8.40;;;;;;;16.18;76.63;97887.81;5081725;28;20131;-54
2023/07/01 00:03:52;;;;;;;9.50;8.55;;;;;;;16.24;76.64;97883.44;5091150;28;20031;-56
2023/07/01 00:06:19;;;;;;;13.32;9.35;;;;;;;16.26;76.39;97873.28;5093219;28;20327;-55
2023/07/01 00:08:45;;;;;;;10.05;9.05;;;;;;;16.32;76.25;97886.78;5088936;28;20028;-56
2023/07/01 00:11:11;;;;;;;10.10;8.80;;;;;;;16.39;76.25;97894.03;5087113;28;20036;-49
2023/07/01 00:13:37;;;;;;;10.13;8.77;;;;;;;16.33;76.47;97877.63;5076132;28;20040;-52
2023/07/01 00:16:04;;;;;;;10.80;8.68;;;;;;;16.44;76.45;97878.88;5072321;28;20039;-54
2023/07/01 00:18:30;;;;;;;12.57;8.85;;;;;;;16.47;76.21;97880.28;5071593;28;20056;-56
2023/07/01 00:20:56;;;;;;;15.25;9.40;;;;;;;16.48;76.26;97888.19;5071906;28;20040;-54
2023/07/01 00:23:22;;;;;;;12.57;9.52;;;;;;;16.50;76.22;97890.69;5073132;28;20036;-55
2023/07/01 00:25:47;;;;;;;12.18;8.80;;;;;;;16.53;76.37;97882.19;5071318;28;20051;-53
2023/07/01 00:28:13;;;;;;;8.90;8.10;;;;;;;16.56;76.05;97878.22;5083795;28;20044;-55
2023/07/01 00:30:39;;;;;;;11.32;9.15;;;;;;;16.54;75.93;97880.28;5079111;28;20064;-51
2023/07/01 00:33:08;;;;;;;10.68;8.77;;;;;;;16.53;75.90;97881.34;5071876;28;20120;-54
2023/07/01 00:35:33;;;;;;;10.50;9.40;;;;;;;16.37;76.04;97851.00;5071359;28;20051;-55
2023/07/01 00:37:59;;;;;;;13.90;9.68;;;;;;;16.59;76.21;97885.88;5071470;28;20407;-52
2023/07/01 00:40:25;;;;;;;14.00;10.20;;;;;;;16.60;75.99;97887.53;5071817;28;20032;-52
2023/07/01 00:42:50;;;;;;;12.32;10.60;;;;;;;16.61;75.96;97881.09;5072713;28;20344;-54
2023/07/01 00:45:16;;;;;;;11.52;10.35;;;;;;;16.58;75.99;97876.13;5073025;28;20455;-54
2023/07/01 00:47:42;;;;;;;15.30;11.35;;;;;;;16.59;76.25;97877.78;5070783;28;20032;-55
2023/07/01 00:50:11;;;;;;;11.75;10.65;;;;;;;16.62;76.11;97888.16;5071981;28;20040;-53
2023/07/01 00:52:38;;;;;;;11.45;10.20;;;;;;;16.46;76.15;97857.88;5073116;28;20093;-56
2023/07/01 00:55:04;;;;;;;11.13;10.02;;;;;;;16.63;76.49;97884.41;5077700;28;20123;-56
2023/07/01 00:57:31;;;;;;;13.05;10.07;;;;;;;16.66;76.17;97878.63;5090234;28;20032;-52
2023/07/01 00:59:57;;;;;;;11.32;8.95;;;;;;;16.61;76.22;97867.59;5090041;28;20089;-52
2023/07/01 01:02:31;;;;;;;9.60;8.70;;;;;;;16.68;76.47;97878.38;5094091;28;20058;-51
2023/07/01 01:05:10;;;;;;;10.15;8.80;;;;;;;16.53;76.39;97851.63;5095971;28;20043;-51
2023/07/01 01:07:55;;;;;;;9.15;8.15;;;;;;;16.84;76.49;97877.09;5093727;28;20424;-54
2023/07/01 01:10:22;;;;;;;9.88;8.88;;;;;;;16.70;76.31;97869.03;5064150;28;20032;-52
2023/07/01 01:12:53;;;;;;;9.98;8.98;;;;;;;16.75;76.46;97880.03;5093748;28;20032;-53
2023/07/01 01:15:19;;;;;;;12.38;10.20;;;;;;;16.72;76.56;97875.06;5062126;28;20090;-51
2023/07/01 01:17:46;;;;;;;11.68;9.90;;;;;;;16.70;76.47;97866.34;5076628;28;20032;-50
2023/07/01 01:20:16;;;;;;;12.10;10.80;;;;;;;16.83;76.56;97883.53;5075736;28;20083;-54
2023/07/01 01:22:57;;;;;;;11.90;10.63;;;;;;;16.76;76.47;97861.97;5076269;28;20161;-51
2023/07/01 01:25:35;;;;;;;13.52;10.50;;;;;;;16.92;76.26;97882.28;5075089;28;20051;-54
2023/07/01 01:28:03;;;;;;;11.55;10.15;;;;;;;16.81;76.62;97874.81;5075142;28;20106;-54
2023/07/01 01:30:31;;;;;;;12.93;10.88;;;;;;;16.86;76.35;97888.53;5074858;28;20098;-52
2023/07/01 01:32:57;;;;;;;15.48;11.68;;;;;;;16.87;76.33;97879.38;5074571;28;20111;-57
2023/07/01 01:35:23;;;;;;;12.30;10.82;;;;;;;16.86;76.34;97873.16;5074838;28;20468;-53
2023/07/01 01:37:59;;;;;;;14.77;10.95;;;;;;;16.95;76.34;97876.44;5075144;28;20032;-58
2023/07/01 01:40:42;;;;;;;11.27;10.07;;;;;;;17.01;76.15;97874.81;5075814;28;20062;-57
2023/07/01 01:43:26;;;;;;;11.57;10.23;;;;;;;17.08;76.07;97862.91;5074759;28;20078;-56
2023/07/01 01:45:53;;;;;;;11.75;10.55;;;;;;;16.93;76.17;97870.44;5076212;28;20036;-52
2023/07/01 01:48:19;;;;;;;13.02;9.98;;;;;;;16.74;76.14;97835.16;5070480;28;20097;-53
2023/07/01 01:50:49;;;;;;;14.98;9.93;;;;;;;16.87;75.88;97839.66;5076060;28;20157;-55
2023/07/01 01:53:16;;;;;;;10.20;9.13;;;;;;;17.02;76.50;97866.47;5075625;28;20125;-52
2023/07/01 01:55:42;;;;;;;10.60;9.50;;;;;;;17.04;75.83;97863.56;5077480;28;20412;-54
2023/07/01 01:58:08;;;;;;;9.95;9.00;;;;;;;17.08;75.83;97870.19;5091961;28;20043;-52
2023/07/01 02:00:35;;;;;;;10.60;9.55;;;;;;;17.11;75.97;97858.09;5073913;28;20036;-51
2023/07/01 02:03:01;;;;;;;11.65;10.10;;;;;;;17.16;75.83;97863.72;5091963;28;20105;-53
2023/07/01 02:05:27;;;;;;;10.93;9.45;;;;;;;17.17;75.53;97855.38;5095021;28;20139;-60
2023/07/01 02:07:53;;;;;;;11.48;10.25;;;;;;;17.14;75.40;97844.19;5093121;28;20076;-53
2023/07/01 02:10:21;;;;;;;11.13;9.73;;;;;;;17.14;75.34;97830.66;5087468;28;20169;-56
2023/07/01 02:12:48;;;;;;;10.85;9.75;;;;;;;17.35;75.12;97856.53;5074036;28;20021;-56
2023/07/01 02:15:14;;;;;;;11.23;9.55;;;;;;;17.38;75.16;97858.00;5074347;28;20050;-55
2023/07/01 02:17:40;;;;;;;9.80;8.82;;;;;;;17.43;74.89;97861.69;5073962;28;20028;-51
2023/07/01 02:20:06;;;;;;;13.07;9.40;;;;;;;17.35;74.85;97846.53;5072063;28;20127;-54
2023/07/01 02:22:33;;;;;;;10.07;8.85;;;;;;;17.48;74.65;97858.34;5075473;28;20131;-54
2023/07/01 02:24:59;;;;;;;14.07;9.68;;;;;;;17.49;74.75;97860.00;5074132;28;20409;-52
2023/07/01 02:27:25;;;;;;;10.45;9.40;;;;;;;17.51;74.63;97860.59;5073656;28;20474;-56
2023/07/01 02:29:50;;;;;;;11.63;9.05;;;;;;;17.53;74.23;97863.13;5073540;28;20108;-54
2023/07/01 02:32:16;;;;;;;10.00;9.07;;;;;;;17.49;74.56;97862.72;5093487;28;20361;-50
2023/07/01 02:34:41;;;;;;;12.18;10.13;;;;;;;17.39;74.56;97848.84;5092092;28;20036;-51
2023/07/01 02:37:07;;;;;;;11.25;10.25;;;;;;;17.50;74.59;97867.06;5090798;28;20474;-55
2023/07/01 02:39:33;;;;;;;11.80;9.90;;;;;;;17.52;74.54;97864.97;5076095;28;20024;-55
2023/07/01 02:41:58;;;;;;;13.85;9.90;;;;;;;17.52;74.52;97864.97;5075116;28;20109;-54
2023/07/01 02:44:24;;;;;;;11.27;10.00;;;;;;;17.56;74.49;97871.59;5073544;28;20032;-49
2023/07/01 02:46:49;;;;;;;12.63;9.82;;;;;;;17.60;74.46;97880.13;5072798;28;20085;-50
2023/07/01 02:49:15;;;;;;;9.90;8.93;;;;;;;17.65;74.00;97870.31;5078891;28;20040;-52
2023/07/01 02:51:41;;;;;;;11.43;9.68;;;;;;;17.80;73.95;97874.56;5092247;28;20048;-52
2023/07/01 02:54:07;;;;;;;10.63;9.13;;;;;;;17.89;73.74;97883.25;5091647;28;20036;-50
2023/07/01 02:56:33;;;;;;;10.95;9.13;;;;;;;17.99;73.26;97874.66;5073351;28;20120;-58
2023/07/01 02:58:58;;;;;;;9.93;8.93;;;;;;;18.03;72.97;97881.31;5077105;28;20123;-52
2023/07/01 03:01:24;;;;;;;11.25;9.15;;;;;;;18.03;72.72;97873.19;5074411;28;20036;-55
2023/07/01 03:03:49;;;;;;;9.70;8.65;;;;;;;18.12;72.96;97879.16;5074505;28;20879;-53
2023/07/01 03:06:16;;;;;;;10.10;9.10;;;;;;;18.17;72.67;97873.91;5073484;28;20055;-53
2023/07/01 03:08:42;;;;;;;11.38;9.20;;;;;;;18.24;72.19;97881.97;5072925;28;20032;-56
2023/07/01 03:11:08;;;;;;;10.40;9.30;;;;;;;18.24;72.38;97872.00;5074782;28;20033;-56
2023/07/01 03:13:35;;;;;;;10.38;9.18;;;;;;;18.25;72.14;97865.53;5074306;28;20113;-52
2023/07/01 03:16:01;;;;;;;13.95;9.68;;;;;;;18.34;71.88;97869.59;5074581;28;20075;-60
2023/07/01 03:18:27;;;;;;;11.32;9.63;;;;;;;18.51;71.27;97874.44;5088773;28;20070;-54
2023/07/01 03:20:52;;;;;;;10.32;9.20;;;;;;;18.65;71.17;97870.53;5071707;28;20193;-49
2023/07/01 03:23:18;;;;;;;10.25;9.27;;;;;;;18.82;70.21;97861.00;5072290;28;20410;-56
2023/07/01 03:25:43;;;;;;;11.45;9.30;;;;;;;18.91;70.00;97859.63;5073211;28;20047;-52
2023/07/01 03:28:09;;;;;;;9.93;8.90;;;;;;;19.08;69.08;97866.13;5074004;28;20097;-52
2023/07/01 03:30:35;;;;;;;11.07;9.10;;;;;;;19.12;68.76;97871.09;5073757;28;20027;-52
2023/07/01 03:33:01;;;;;;;9.77;8.73;;;;;;;19.11;69.04;97861.31;5074234;28;20032;-51
2023/07/01 03:35:27;;;;;;;10.55;9.38;;;;;;;19.13;69.07;97867.34;5086580;28;20050;-54
2023/07/01 03:37:52;;;;;;;12.93;9.05;;;;;;;19.24;68.67;97865.75;5090858;28;20521;-54
2023/07/01 03:40:18;;;;;;;10.23;8.88;;;;;;;19.55;67.89;97855.72;5092789;28;20027;-52
2023/07/01 03:42:45;;;;;;;10.93;8.93;;;;;;;19.89;66.98;97859.59;5086418;28;20029;-54
2023/07/01 03:45:12;;;;;;;12.90;9.02;;;;;;;20.50;64.92;97854.00;5072922;28;20153;-51
2023/07/01 03:47:42;;;;;;;9.95;8.93;;;;;;;21.45;62.25;97868.47;5074278;28;20111;-49
2023/07/01 03:50:07;;;;;;;11.95;8.95;;;;;;;22.15;59.44;97861.00;5071649;28;20036;-50
2023/07/01 03:52:34;;;;;;;10.05;9.05;;;;;;;22.32;58.07;97838.38;5072541;28;20032;-61
2023/07/01 03:55:00;;;;;;;9.85;8.70;;;;;;;22.60;57.46;97861.16;5071761;28;20060;-52
2023/07/01 03:57:25;;;;;;;10.20;9.02;;;;;;;22.78;56.93;97857.31;5071948;28;20095;-53
2023/07/01 03:59:51;;;;;;;9.55;8.00;;;;;;;23.21;55.97;97860.31;5072087;28;20036;-55
2023/07/01 04:02:16;;;;;;;9.43;8.25;;;;;;;23.72;53.73;97840.13;5071684;28;20044;-52
2023/07/01 04:04:42;;;;;;;9.50;8.68;;;;;;;24.18;52.16;97867.88;5071899;28;20104;-50
2023/07/01 04:07:07;;;;;;;12.43;9.30;;;;;;;24.23;51.76;97856.97;5071985;28;20457;-57
2023/07/01 04:09:33;;;;;;;9.25;8.27;;;;;;;24.39;50.85;97854.34;5071998;28;20039;-54
2023/07/01 04:11:59;;;;;;;9.18;8.27;;;;;;;24.77;50.10;97859.81;5072141;28;20039;-54
2023/07/01 04:14:25;;;;;;;8.70;7.80;;;;;;;25.70;47.78;97862.06;5071691;28;20148;-56
2023/07/01 04:16:51;;;;;;;8.27;7.47;;;;;;;26.15;46.06;97874.19;5071713;28;20430;-57
2023/07/01 04:19:16;;;;;;;8.80;7.90;;;;;;;26.19;45.83;97869.00;5082719;28;20081;-58
2023/07/01 04:21:42;;;;;;;10.68;8.60;;;;;;;25.65;46.58;97876.56;5081949;28;20371;-57
2023/07/01 04:24:08;;;;;;;7.63;7.00;;;;;;;25.82;45.77;97870.88;5071035;28;20819;-56
2023/07/01 04:26:34;;;;;;;7.35;6.75;;;;;;;25.67;45.98;97879.88;5090848;28;20060;-56
2023/07/01 04:29:00;;;;;;;7.10;6.50;;;;;;;25.46;46.65;97884.47;5089826;28;20553;-57
2023/07/01 04:31:26;;;;;;;7.53;6.80;;;;;;;24.97;47.22;97861.81;5091630;28;20040;-58
2023/07/01 04:33:51;;;;;;;7.10;6.50;;;;;;;24.69;47.72;97866.56;5092930;28;20035;-53
2023/07/01 04:36:17;;;;;;;7.53;6.80;;;;;;;24.60;48.57;97873.66;5094283;28;20031;-55
2023/07/01 04:38:42;;;;;;;6.95;6.35;;;;;;;24.68;48.82;97875.03;5094470;28;20023;-54
2023/07/01 04:41:08;;;;;;;7.30;6.60;;;;;;;24.37;48.99;97853.81;5096471;28;20038;-52
2023/07/01 04:43:35;;;;;;;6.28;5.68;;;;;;;24.09;49.74;97885.81;5082234;28;20072;-56
2023/07/01 04:46:00;;;;;;;7.00;6.35;;;;;;;23.58;51.14;97884.22;5074774;28;20024;-55
2023/07/01 04:48:26;;;;;;;6.70;6.20;;;;;;;23.16;52.50;97872.00;5088351;28;20354;-55
2023/07/01 04:50:52;;;;;;;7.28;6.65;;;;;;;22.65;53.65;97859.34;5077742;28;20102;-49
2023/07/01 04:53:18;;;;;;;7.38;6.55;;;;;;;22.58;54.63;97874.22;5093163;28;20032;-51
2023/07/01 04:55:43;;;;;;;9.10;6.00;;;;;;;22.49;54.41;97880.09;5075177;28;20040;-56
2023/07/01 04:58:09;;;;;;;7.35;6.40;;;;;;;22.43;54.58;97886.53;5077108;28;20043;-51
2023/07/01 05:00:34;;;;;;;7.18;6.47;;;;;;;22.36;54.56;97883.13;5077416;28;20111;-55
2023/07/01 05:03:01;;;;;;;6.65;6.15;;;;;;;22.51;54.87;97885.28;5075089;28;20033;-53
2023/07/01 05:05:26;;;;;;;8.07;6.60;;;;;;;22.94;53.27;97882.91;5075680;28;20033;-53
2023/07/01 05:07:52;;;;;;;7.32;6.60;;;;;;;24.34;50.57;97892.59;5090774;28;20039;-52
2023/07/01 05:10:17;;;;;;;6.95;6.30;;;;;;;25.80;46.66;97878.53;5085988;28;20041;-53
2023/07/01 05:12:43;;;;;;;7.05;6.40;;;;;;;26.49;44.27;97881.84;5075016;28;20039;-52
2023/07/01 05:15:09;;;;;;;7.20;6.47;;;;;;;26.55;44.48;97881.88;5089828;28;20044;-58
2023/07/01 05:17:34;;;;;;;6.93;6.10;;;;;;;26.91;43.71;97881.81;5094270;28;20039;-57
2023/07/01 05:20:00;;;;;;;7.47;6.22;;;;;;;27.30;42.85;97881.13;5096022;28;20127;-53
2023/07/01 05:22:26;;;;;;;6.72;6.13;;;;;;;28.11;41.10;97851.78;5093211;28;20043;-54
2023/07/01 05:24:51;;;;;;;6.70;6.00;;;;;;;29.32;39.03;97882.19;5085148;28;20020;-54
2023/07/01 05:27:17;;;;;;;6.45;5.72;;;;;;;30.53;35.98;97876.56;5077323;28;20060;-52
2023/07/01 05:29:42;;;;;;;6.20;5.70;;;;;;;30.40;36.02;97880.91;5076587;28;20110;-55
2023/07/01 05:32:08;;;;;;;6.32;5.72;;;;;;;30.11;36.67;97896.56;5074879;28;20528;-54
2023/07/01 05:34:33;;;;;;;6.45;5.70;;;;;;;29.64;37.10;97877.91;5073864;28;20032;-58
2023/07/01 05:36:59;;;;;;;5.95;5.45;;;;;;;29.30;37.51;97887.19;5058381;28;20128;-57
2023/07/01 05:39:25;;;;;;;5.90;5.43;;;;;;;28.88;38.04;97873.09;5076273;28;20370;-54
2023/07/01 05:41:50;;;;;;;5.85;5.35;;;;;;;28.35;39.19;97873.84;5076059;28;20097;-54
2023/07/01 05:44:16;;;;;;;6.18;5.53;;;;;;;28.02;40.08;97879.06;5074055;28;20028;-55
2023/07/01 05:46:41;;;;;;;5.68;5.20;;;;;;;27.96;40.60;97891.19;5076903;28;20108;-54
2023/07/01 05:49:10;;;;;;;5.28;4.88;;;;;;;28.28;39.18;97887.13;5075270;28;20431;-53
2023/07/01 05:51:36;;;;;;;5.70;5.20;;;;;;;28.22;39.37;97889.94;5074886;28;20029;-51
2023/07/01 05:54:02;;;;;;;6.07;5.57;;;;;;;29.69;36.85;97892.78;5074450;28;20111;-55
2023/07/01 05:56:29;;;;;;;5.75;5.35;;;;;;;30.98;34.59;97887.88;5057996;28;20479;-51
2023/07/01 05:58:55;;;;;;;8.20;5.43;;;;;;;31.25;33.28;97882.69;5075235;28;20105;-57
2023/07/01 06:01:20;;;;;;;6.30;5.28;;;;;;;31.61;33.59;97891.03;5074209;28;20036;-60
2023/07/01 06:03:46;;;;;;;5.53;4.85;;;;;;;32.03;33.01;97901.16;5074274;28;20033;-55
2023/07/01 06:06:11;;;;;;;5.20;4.70;;;;;;;33.04;30.63;97900.84;5074671;28;20047;-58
2023/07/01 06:08:37;;;;;;;9.13;5.68;;;;;;;32.68;30.90;97904.56;5090432;28;20032;-55
2023/07/01 06:11:02;;;;;;;5.00;4.57;;;;;;;31.83;31.95;97908.00;5074098;28;20094;-53
2023/07/01 06:13:28;;;;;;;6.43;4.60;;;;;;;31.63;32.88;97908.13;5076590;28;20024;-55
2023/07/01 06:15:53;;;;;;;4.45;4.15;;;;;;;33.11;30.00;97911.47;5076290;28;20036;-54
2023/07/01 06:18:19;;;;;;;5.22;4.68;;;;;;;34.07;28.10;97904.50;5074841;28;20032;-53
2023/07/01 06:20:45;;;;;;;5.18;4.38;;;;;;;34.04;27.85;97894.06;5074060;28;20047;-56
2023/07/01 06:23:10;;;;;;;5.82;3.65;;;;;;;35.30;26.24;97906.13;5072624;28;20094;-57
2023/07/01 06:25:36;;;;;;;4.43;4.03;;;;;;;35.36;26.09;97899.25;5072770;28;20032;-54
2023/07/01 06:28:01;;;;;;;4.80;4.38;;;;;;;36.36;24.69;97906.22;5073759;28;20032;-52
2023/07/01 06:30:27;;;;;;;6.85;4.15;;;;;;;38.42;22.34;97899.97;5073128;28;20093;-55
2023/07/01 06:32:52;;;;;;;5.80;4.00;;;;;;;40.00;20.48;97893.84;5074644;28;20085;-52
2023/07/01 06:35:18;;;;;;;4.68;3.72;;;;;;;39.15;21.15;97889.50;5072521;28;20465;-58
2023/07/01 06:37:44;;;;;;;4.57;3.55;;;;;;;37.33;22.99;97885.59;5072422;28;20107;-56
2023/07/01 06:40:12;;;;;;;4.25;3.85;;;;;;;35.75;24.89;97890.84;5073461;28;20460;-53
2023/07/01 06:42:38;;;;;;;4.95;4.18;;;;;;;36.14;24.41;97899.06;5082178;28;20174;-54
2023/07/01 06:45:04;;;;;;;4.25;3.90;;;;;;;34.89;26.24;97900.09;5091355;28;20047;-55
2023/07/01 06:47:31;;;;;;;6.03;3.97;;;;;;;33.06;28.28;97897.75;5092147;28;20351;-57
2023/07/01 06:49:57;;;;;;;3.95;3.60;;;;;;;31.26;30.30;97865.00;5093579;28;20027;-52
2023/07/01 06:52:22;;;;;;;4.07;3.67;;;;;;;30.34;31.96;97888.47;5091793;28;20032;-58
2023/07/01 06:54:48;;;;;;;4.30;3.90;;;;;;;29.60;34.02;97887.91;5084585;28;20036;-57
2023/07/01 06:57:13;;;;;;;4.82;3.80;;;;;;;28.68;35.32;97874.06;5072471;28;20032;-63
2023/07/01 06:59:39;;;;;;;5.40;4.47;;;;;;;28.12;37.00;97894.66;5081929;28;20028;-53
2023/07/01 07:02:05;;;;;;;5.93;4.20;;;;;;;29.47;34.87;97917.03;5089835;28;20040;-55
2023/07/01 07:04:30;;;;;;;4.97;4.57;;;;;;;29.77;33.93;97903.94;5093872;28;20040;-56
2023/07/01 07:06:56;;;;;;;6.97;4.47;;;;;;;30.72;32.94;97904.13;5093572;28;20028;-56
2023/07/01 07:09:22;;;;;;;4.68;4.28;;;;;;;31.31;30.87;97898.03;5093379;28;20441;-58
2023/07/01 07:11:48;;;;;;;4.68;4.15;;;;;;;32.43;29.01;97881.94;5093266;28;20510;-56
2023/07/01 07:14:13;;;;;;;4.45;3.83;;;;;;;35.72;24.71;97883.16;5093853;28;20028;-54
2023/07/01 07:16:46;;;;;;;4.28;3.90;;;;;;;36.17;24.57;97896.41;5093331;28;20404;-69
2023/07/01 07:19:11;;;;;;;4.00;3.60;;;;;;;36.74;22.55;97885.66;5077421;28;20059;-53
2023/07/01 07:21:37;;;;;;;3.80;3.50;;;;;;;37.37;21.74;97871.75;5073440;28;20053;-55
2023/07/01 07:24:03;;;;;;;4.18;3.85;;;;;;;39.54;19.52;97882.41;5072867;28;20521;-61
2023/07/01 07:26:28;;;;;;;7.32;3.75;;;;;;;40.41;18.81;97885.06;5071705;28;20021;-58
2023/07/01 07:28:54;;;;;;;3.92;3.70;;;;;;;40.42;18.49;97867.03;5072559;28;20028;-52
2023/07/01 07:31:19;;;;;;;3.75;3.45;;;;;;;41.35;17.98;97885.84;5072354;28;20024;-55
2023/07/01 07:33:45;;;;;;;4.70;3.60;;;;;;;40.53;18.13;97881.25;5072875;28;20097;-53
2023/07/01 07:36:10;;;;;;;4.72;3.42;;;;;;;41.25;17.43;97878.91;5073111;28;20431;-54
2023/07/01 07:38:36;;;;;;;3.60;3.20;;;;;;;41.81;16.92;97879.28;5072029;28;20081;-55
2023/07/01 07:41:01;;;;;;;4.97;3.90;;;;;;;42.92;15.85;97886.53;5072247;28;20467;-57
2023/07/01 07:43:27;;;;;;;5.10;3.42;;;;;;;43.25;15.66;97881.97;5072988;28;20099;-56
2023/07/01 07:45:52;;;;;;;4.13;3.60;;;;;;;42.51;15.51;97889.38;5073525;28;20031;-56
2023/07/01 07:48:18;;;;;;;4.35;3.63;;;;;;;41.63;16.46;97881.88;5072226;28;20042;-58
2023/07/01 07:50:43;;;;;;;4.43;3.25;;;;;;;40.11;17.77;97882.84;5072773;28;20394;-55
2023/07/01 07:53:09;;;;;;;4.13;3.70;;;;;;;39.02;18.75;97890.78;5072042;28;20025;-55
2023/07/01 07:55:34;;;;;;;3.80;3.50;;;;;;;37.90;19.68;97886.56;5072297;28;20060;-60
2023/07/01 07:58:01;;;;;;;5.32;3.55;;;;;;;38.48;19.91;97893.78;5071990;28;20031;-56
2023/07/01 08:00:27;;;;;;;4.65;3.30;;;;;;;41.43;16.66;97890.41;5072207;28;20040;-55
2023/07/01 08:02:52;;;;;;;4.10;3.70;;;;;;;42.33;15.48;97887.16;5072203;28;20119;-55
2023/07/01 08:05:18;;;;;;;3.95;3.45;;;;;;;40.89;17.41;97900.75;5071938;28;20028;-59
2023/07/01 08:07:47;;;;;;;3.47;3.17;;;;;;;40.55;17.84;97892.91;5072503;28;20051;-53
2023/07/01 08:10:15;;;;;;;5.38;3.63;;;;;;;39.17;18.53;97898.34;5073439;28;20127;-56
2023/07/01 08:12:40;;;;;;;4.18;3.75;;;;;;;38.15;19.82;97886.50;5054359;28;20028;-54
2023/07/01 08:15:06;;;;;;;7.70;5.50;;;;;;;37.14;21.19;97892.56;5071798;28;20440;-58
2023/07/01 08:17:32;;;;;;;6.35;4.35;;;;;;;36.31;21.95;97900.84;5072049;28;20032;-55
2023/07/01 08:19:58;;;;;;;5.18;4.13;;;;;;;36.69;21.36;97891.47;5072184;28;20146;-57
2023/07/01 08:22:24;;;;;;;4.28;3.88;;;;;;;36.88;20.53;97890.09;5072065;28;20032;-54
2023/07/01 08:24:50;;;;;;;4.85;4.20;;;;;;;37.22;20.78;97890.84;5072366;28;20466;-54
2023/07/01 08:27:15;;;;;;;4.93;4.53;;;;;;;36.91;20.77;97900.56;5071800;28;20089;-55
2023/07/01 08:29:41;;;;;;;4.57;4.18;;;;;;;36.33;20.87;97899.38;5072249;28;20174;-55
2023/07/01 08:32:07;;;;;;;4.57;4.00;;;;;;;35.32;22.24;97859.31;5072267;28;20020;-50
2023/07/01 08:34:35;;;;;;;6.85;3.88;;;;;;;34.78;23.38;97903.25;5072836;28;20403;-55
2023/07/01 08:37:01;;;;;;;5.90;4.43;;;;;;;33.76;24.88;97899.88;5071703;28;20343;-57
2023/07/01 08:39:26;;;;;;;5.40;4.50;;;;;;;32.90;25.08;97894.59;5072018;28;20036;-54
2023/07/01 08:41:56;;;;;;;5.07;4.57;;;;;;;32.20;25.63;97901.31;5072282;28;20039;-54
2023/07/01 08:44:25;;;;;;;6.35;4.65;;;;;;;31.59;27.38;97904.38;5068457;28;20025;-56
2023/07/01 08:46:53;;;;;;;5.72;4.70;;;;;;;30.94;27.78;97893.19;5069810;28;20194;-58
2023/07/01 08:49:22;;;;;;;13.60;4.80;;;;;;;30.47;29.37;97909.78;5072870;28;20051;-53
2023/07/01 08:51:51;;;;;;;6.53;5.30;;;;;;;29.78;30.17;97913.03;5072154;28;20032;-55
2023/07/01 08:54:18;;;;;;;5.75;5.18;;;;;;;29.25;30.83;97909.31;5070755;28;20367;-58
2023/07/01 08:56:47;;;;;;;5.85;5.10;;;;;;;28.97;31.91;97911.84;5070790;28;20427;-55
2023/07/01 08:59:14;;;;;;;5.78;5.28;;;;;;;28.41;32.05;97896.66;5070784;28;20033;-54
2023/07/01 09:01:42;;;;;;;6.97;5.70;;;;;;;28.14;32.86;97912.50;5070463;28;20029;-51
2023/07/01 09:04:08;;;;;;;5.80;5.30;;;;;;;27.80;33.79;97900.38;5070084;28;20413;-53
2023/07/01 09:06:34;;;;;;;6.68;5.63;;;;;;;27.85;33.81;97905.03;5070296;28;20036;-56
2023/07/01 09:09:01;;;;;;;7.72;5.75;;;;;;;27.83;33.78;97885.25;5070652;28;20036;-53
2023/07/01 09:11:27;;;;;;;6.97;6.18;;;;;;;27.84;33.72;97889.63;5070684;28;20105;-57
2023/07/01 09:13:56;;;;;;;8.55;6.05;;;;;;;28.08;33.67;97899.91;5087129;28;20032;-54
2023/07/01 09:16:35;;;;;;;6.50;5.38;;;;;;;28.43;32.26;97892.50;5091661;28;20043;-57
2023/07/01 09:19:14;;;;;;;6.85;5.40;;;;;;;28.85;31.91;97900.38;5092827;28;20031;-56
2023/07/01 09:21:41;;;;;;;7.43;5.88;;;;;;;29.05;31.42;97900.16;5090453;28;20378;-55
2023/07/01 09:24:10;;;;;;;5.35;4.85;;;;;;;29.30;30.38;97905.63;5074994;28;20033;-55
2023/07/01 09:26:35;;;;;;;7.32;6.20;;;;;;;29.34;30.63;97902.00;5074646;28;20438;-55
2023/07/01 09:29:08;;;;;;;6.60;6.00;;;;;;;29.37;30.90;97908.88;5075372;28;20040;-57
2023/07/01 09:31:47;;;;;;;8.73;5.60;;;;;;;29.39;30.82;97914.06;5075489;28;20093;-54
2023/07/01 09:34:15;;;;;;;9.65;5.65;;;;;;;29.21;32.15;97902.75;5073861;28;20032;-58
2023/07/01 09:36:40;;;;;;;6.72;5.50;;;;;;;29.13;31.67;97886.84;5075919;28;20024;-54
2023/07/01 09:39:06;;;;;;;8.98;5.53;;;;;;;29.20;30.80;97898.34;5075080;28;20458;-56
2023/07/01 09:41:32;;;;;;;5.90;5.40;;;;;;;29.29;30.64;97904.84;5075021;28;20032;-56
2023/07/01 09:43:58;;;;;;;6.30;5.70;;;;;;;29.21;30.20;97913.75;5074532;28;20035;-56
2023/07/01 09:46:50;;;;;;;6.43;5.32;;;;;;;29.30;30.78;97906.47;5074261;28;20040;-56
2023/07/01 09:49:16;;;;;;;5.65;5.15;;;;;;;29.48;29.98;97898.56;5074285;28;20107;-53
2023/07/01 09:51:49;;;;;;;12.20;6.07;;;;;;;29.52;30.10;97905.13;5074612;28;20112;-54
2023/07/01 09:54:26;;;;;;;17.75;6.38;;;;;;;29.43;30.06;97909.66;5074400;28;20293;-52
2023/07/01 09:56:54;;;;;;;11.65;5.72;;;;;;;29.34;29.96;97885.47;5074314;28;20045;-55
2023/07/01 09:59:20;;;;;;;6.13;5.57;;;;;;;29.40;29.70;97905.53;5074175;28;20140;-51
2023/07/01 10:01:47;;;;;;;7.43;5.65;;;;;;;29.31;29.92;97902.59;5074116;28;20021;-54
2023/07/01 10:04:13;;;;;;;7.50;5.78;;;;;;;29.33;29.91;97897.63;5074556;28;20051;-52
2023/07/01 10:06:42;;;;;;;7.13;5.45;;;;;;;29.13;29.75;97901.44;5073972;28;20028;-55
2023/07/01 10:09:07;;;;;;;6.43;5.30;;;;;;;28.77;30.50;97894.38;5080619;28;20032;-52
2023/07/01 10:11:35;;;;;;;6.88;5.93;;;;;;;28.50;30.67;97908.66;5094457;28;20035;-56
2023/07/01 10:14:03;;;;;;;7.93;6.45;;;;;;;28.32;31.54;97880.75;5094399;28;20032;-58
2023/07/01 10:16:29;;;;;;;6.28;5.78;;;;;;;28.53;30.96;97910.84;5094085;28;20031;-56
2023/07/01 10:18:54;;;;;;;7.03;5.32;;;;;;;28.65;30.56;97903.03;5093015;28;20028;-65
2023/07/01 10:21:23;;;;;;;9.48;5.38;;;;;;;28.65;30.62;97905.78;5094663;28;20091;-57
2023/07/01 10:23:54;;;;;;;6.10;5.50;;;;;;;28.46;29.79;97908.44;5094428;28;20132;-59
2023/07/01 10:26:31;;;;;;;6.18;5.40;;;;;;;28.36;31.17;97901.09;5092783;28;20458;-55
2023/07/01 10:28:57;;;;;;;7.72;5.97;;;;;;;28.21;31.73;97890.22;5089340;28;20036;-58
2023/07/01 10:31:23;;;;;;;6.53;5.80;;;;;;;28.07;31.67;97903.78;5094045;28;20442;-55
2023/07/01 10:33:50;;;;;;;7.10;6.40;;;;;;;28.00;31.96;97912.34;5092004;28;20119;-56
2023/07/01 10:36:19;;;;;;;7.43;5.82;;;;;;;27.60;31.59;97873.84;5094633;28;20063;-57
2023/07/01 10:38:45;;;;;;;6.43;5.57;;;;;;;27.69;31.40;97909.81;5092287;28;20028;-61
2023/07/01 10:41:10;;;;;;;6.45;5.85;;;;;;;27.65;32.16;97901.28;5092737;28;20050;-54
2023/07/01 10:43:37;;;;;;;6.80;5.97;;;;;;;27.78;33.13;97905.34;5094055;28;20420;-56
2023/07/01 10:46:03;;;;;;;9.60;7.30;;;;;;;27.87;32.84;97900.06;5093195;28;20024;-54
2023/07/01 10:48:28;;;;;;;7.55;5.95;;;;;;;27.87;32.55;97910.25;5092941;28;20031;-51
2023/07/01 10:51:26;;;;;;;10.57;6.10;;;;;;;27.91;32.40;97906.63;5092593;28;20393;-56
2023/07/01 10:54:03;;;;;;;9.43;6.72;;;;;;;27.61;33.01;97908.47;5059423;28;20415;-56
2023/07/01 10:56:31;;;;;;;7.15;6.50;;;;;;;27.37;33.47;97902.78;5092350;28;20499;-56
2023/07/01 10:59:21;;;;;;;6.82;6.13;;;;;;;27.55;32.94;97906.84;5077524;28;20059;-67
2023/07/01 11:02:01;;;;;;;8.48;5.93;;;;;;;27.29;33.01;97901.44;5093272;28;20118;-58
2023/07/01 11:04:51;;;;;;;6.10;5.50;;;;;;;27.58;32.96;97909.03;5093811;28;20032;-64
2023/07/01 11:07:27;;;;;;;8.70;6.00;;;;;;;27.67;31.91;97912.00;5092429;28;20151;-53
2023/07/01 11:09:56;;;;;;;7.78;5.60;;;;;;;27.75;31.67;97886.66;5090985;28;20028;-56
2023/07/01 11:12:23;;;;;;;7.72;5.25;;;;;;;27.91;31.95;97895.63;5093290;28;20182;-56
2023/07/01 11:14:51;;;;;;;5.95;5.45;;;;;;;27.96;31.46;97896.69;5093596;28;20458;-59
2023/07/01 11:17:18;;;;;;;6.93;6.22;;;;;;;27.87;31.61;97910.25;5091822;28;20107;-58
2023/07/01 11:19:44;;;;;;;5.88;5.38;;;;;;;27.83;32.04;97893.50;5085931;28;20041;-57
2023/07/01 11:22:13;;;;;;;6.72;5.63;;;;;;;27.74;32.15;97900.72;5072883;28;20047;-55
2023/07/01 11:24:40;;;;;;;7.68;5.20;;;;;;;27.92;31.76;97896.47;5073157;28;20037;-56
2023/07/01 11:27:08;;;;;;;5.70;5.05;;;;;;;28.06;30.66;97905.69;5072075;28;20493;-59
2023/07/01 11:29:41;;;;;;;7.63;5.05;;;;;;;28.10;30.18;97874.88;5072480;28;20024;-57